Time;durP1;ratioP1;P1;durP2;ratioP2;P2;SDS_P1;SDS_P2;PMS_P1;PMS_P2;Temp;Humidity;BMP_temperature;BMP_pressure;BME280_temperature;BME280_humidity;BME280_pressure;Samples;Min_cycle;Max_cycle;Signal;HPM_P1;HPM_P2
2021/03/25 00:02:05;;;;;;;17.27;9.63;;;6.70;99.90;;;;;;5056838;28;20672;-82
2021/03/25 00:04:32;;;;;;;16.00;10.32;;;6.70;99.90;;;;;;5058301;28;20332;-81
2021/03/25 00:07:01;;;;;;;22.48;10.95;;;6.40;99.90;;;;;;5059260;28;20203;-82
2021/03/25 00:09:30;;;;;;;15.35;9.63;;;6.50;99.90;;;;;;5058790;28;20241;-82
2021/03/25 00:11:57;;;;;;;18.60;10.55;;;6.40;99.90;;;;;;5059824;28;20207;-83
2021/03/25 00:14:24;;;;;;;16.13;9.73;;;6.30;99.90;;;;;;5058796;28;20236;-81
2021/03/25 00:16:51;;;;;;;16.40;10.60;;;6.30;99.90;;;;;;5054234;28;20231;-82
2021/03/25 00:19:17;;;;;;;17.10;9.90;;;6.20;99.90;;;;;;5048244;28;20933;-82
2021/03/25 00:21:44;;;;;;;16.58;9.57;;;6.20;99.90;;;;;;5060329;28;20264;-82
2021/03/25 00:24:14;;;;;;;14.30;9.30;;;6.30;99.90;;;;;;5059230;28;20202;-81
2021/03/25 00:26:41;;;;;;;17.88;10.73;;;6.20;99.90;;;;;;5058939;28;20210;-81
2021/03/25 00:29:09;;;;;;;16.35;10.05;;;6.30;99.90;;;;;;5058686;28;20267;-81
2021/03/25 00:31:35;;;;;;;15.82;9.13;;;6.40;99.90;;;;;;5060528;28;20236;-81
2021/03/25 00:34:02;;;;;;;19.02;10.27;;;6.10;99.90;;;;;;5048612;28;20208;-82
2021/03/25 00:36:28;;;;;;;17.42;9.93;;;6.20;99.90;;;;;;5038078;28;20704;-80
2021/03/25 00:38:56;;;;;;;15.63;9.25;;;6.20;99.90;;;;;;5050522;28;20767;-81
2021/03/25 00:41:23;;;;;;;15.98;9.55;;;6.20;99.90;;;;;;5058401;28;20298;-82
2021/03/25 00:43:50;;;;;;;14.75;9.60;;;6.10;99.90;;;;;;5057167;28;20209;-81
2021/03/25 00:46:16;;;;;;;17.33;9.98;;;6.10;99.90;;;;;;5057310;28;20685;-81
2021/03/25 00:48:42;;;;;;;14.93;9.50;;;6.20;99.90;;;;;;5064715;28;20720;-81
2021/03/25 00:51:09;;;;;;;14.75;10.25;;;6.00;99.90;;;;;;5059187;28;20221;-82
2021/03/25 00:53:37;;;;;;;13.68;9.20;;;6.20;99.90;;;;;;5062261;28;20217;-83
2021/03/25 00:56:06;;;;;;;16.75;10.65;;;6.10;99.90;;;;;;5065214;28;20198;-83
2021/03/25 00:58:37;;;;;;;14.40;10.32;;;6.00;99.90;;;;;;5052451;28;20230;-80
2021/03/25 01:01:07;;;;;;;14.55;9.40;;;6.30;99.90;;;;;;5060656;28;20210;-80
2021/03/25 01:03:34;;;;;;;16.50;9.77;;;6.10;99.90;;;;;;5067095;28;20262;-80
2021/03/25 01:06:00;;;;;;;18.42;10.88;;;6.00;99.90;;;;;;5065098;28;20207;-81
2021/03/25 01:08:27;;;;;;;18.00;10.23;;;5.90;99.90;;;;;;5045554;28;20265;-80
2021/03/25 01:10:57;;;;;;;18.20;10.57;;;5.90;99.90;;;;;;5068313;28;20230;-80
2021/03/25 01:13:28;;;;;;;16.58;10.02;;;6.10;99.90;;;;;;5069111;28;20195;-81
2021/03/25 01:15:56;;;;;;;18.77;9.45;;;6.10;99.90;;;;;;5060531;28;20221;-78
2021/03/25 01:18:22;;;;;;;17.65;10.77;;;6.00;99.90;;;;;;5074833;28;20214;-81
2021/03/25 01:20:49;;;;;;;16.25;8.93;;;6.00;99.90;;;;;;5073430;28;20231;-80
2021/03/25 01:23:16;;;;;;;18.67;10.13;;;5.90;99.90;;;;;;5062640;28;20226;-81
2021/03/25 01:25:43;;;;;;;19.83;9.55;;;6.00;99.90;;;;;;5068507;28;20183;-81
2021/03/25 01:28:13;;;;;;;16.58;9.82;;;5.90;99.90;;;;;;5063057;28;20230;-81
2021/03/25 01:30:41;;;;;;;18.23;10.80;;;5.90;99.90;;;;;;5059293;28;20206;-82
2021/03/25 01:33:10;;;;;;;17.00;10.18;;;5.70;99.90;;;;;;5058133;28;20217;-82
2021/03/25 01:35:38;;;;;;;15.63;10.15;;;6.00;99.90;;;;;;5058009;28;20210;-82
2021/03/25 01:38:06;;;;;;;15.48;9.98;;;5.70;99.90;;;;;;5057773;28;20222;-84
2021/03/25 01:40:36;;;;;;;19.88;10.10;;;5.80;99.90;;;;;;5042684;28;20250;-82
2021/03/25 01:43:14;;;;;;;20.17;9.27;;;5.80;99.90;;;;;;5048569;28;20652;-82
2021/03/25 01:45:49;;;;;;;16.83;9.57;;;5.70;99.90;;;;;;5058251;28;20221;-82
2021/03/25 01:48:18;;;;;;;16.58;10.30;;;6.00;99.90;;;;;;5056611;28;20225;-82
2021/03/25 01:50:45;;;;;;;17.70;10.80;;;5.80;99.90;;;;;;5057189;28;20297;-82
2021/03/25 01:53:35;;;;;;;16.80;10.48;;;5.70;99.90;;;;;;5057152;28;20221;-82
2021/03/25 01:56:14;;;;;;;18.23;10.55;;;5.80;99.90;;;;;;5018093;28;20219;-82
2021/03/25 01:59:19;;;;;;;18.10;10.73;;;5.60;99.90;;;;;;5047394;28;20274;-82
2021/03/25 02:01:53;;;;;;;15.85;9.60;;;5.80;99.90;;;;;;5036512;28;20211;-82
2021/03/25 02:04:28;;;;;;;16.20;10.23;;;5.50;99.90;;;;;;5055253;28;20290;-81
2021/03/25 02:07:03;;;;;;;17.65;10.60;;;5.80;99.90;;;;;;5043393;28;20198;-82
2021/03/25 02:09:43;;;;;;;17.80;10.60;;;5.80;99.90;;;;;;5054930;28;20218;-82
2021/03/25 02:12:17;;;;;;;18.63;10.27;;;5.60;99.90;;;;;;5053277;28;20234;-81
2021/03/25 02:14:48;;;;;;;18.38;9.95;;;5.50;99.90;;;;;;5055618;28;20193;-82
2021/03/25 02:17:20;;;;;;;17.33;10.73;;;5.50;99.90;;;;;;5055332;28;20217;-81
2021/03/25 02:20:23;;;;;;;17.25;11.07;;;5.50;99.90;;;;;;5036592;28;20231;-82
2021/03/25 02:23:27;;;;;;;17.38;10.05;;;5.30;99.90;;;;;;5040840;28;20304;-81
2021/03/25 02:25:58;;;;;;;18.05;10.52;;;5.50;99.90;;;;;;5024174;28;20220;-81
2021/03/25 02:28:37;;;;;;;18.27;10.63;;;5.40;99.90;;;;;;5050724;28;20320;-81
2021/03/25 02:31:11;;;;;;;21.42;10.10;;;5.50;99.90;;;;;;5039395;28;20215;-81
2021/03/25 02:33:40;;;;;;;19.98;9.85;;;5.60;99.90;;;;;;5044887;28;20199;-81
2021/03/25 02:36:10;;;;;;;19.77;10.27;;;5.40;99.90;;;;;;5038018;28;20231;-81
2021/03/25 02:38:41;;;;;;;15.10;9.55;;;5.60;99.90;;;;;;5056365;28;20218;-81
2021/03/25 02:41:13;;;;;;;16.67;8.90;;;5.60;99.90;;;;;;5048807;28;20261;-82
2021/03/25 02:43:44;;;;;;;14.68;9.85;;;5.50;99.90;;;;;;5060013;28;20259;-81
2021/03/25 02:46:16;;;;;;;14.73;8.80;;;5.50;99.90;;;;;;5062590;28;20300;-82
2021/03/25 02:48:46;;;;;;;16.48;10.70;;;5.60;99.90;;;;;;5062961;28;20288;-82
2021/03/25 02:51:17;;;;;;;17.58;9.95;;;5.80;99.90;;;;;;5064985;28;20241;-82
2021/03/25 02:53:45;;;;;;;17.25;9.77;;;5.60;99.90;;;;;;5066612;28;20218;-82
2021/03/25 02:56:16;;;;;;;15.25;9.10;;;5.50;99.90;;;;;;5065433;28;20838;-82
2021/03/25 02:58:46;;;;;;;14.68;9.85;;;5.70;99.90;;;;;;5059872;28;20254;-82
2021/03/25 03:01:17;;;;;;;17.40;10.55;;;5.80;99.90;;;;;;5053636;28;20290;-82
2021/03/25 03:03:47;;;;;;;18.27;9.95;;;5.60;99.90;;;;;;5038860;28;20226;-83
2021/03/25 03:06:18;;;;;;;14.75;9.60;;;5.70;99.90;;;;;;5057320;28;20238;-82
2021/03/25 03:08:47;;;;;;;17.85;9.32;;;5.60;99.90;;;;;;5056812;28;20252;-83
2021/03/25 03:11:19;;;;;;;16.90;10.73;;;5.60;99.90;;;;;;5058133;28;20225;-82
2021/03/25 03:13:50;;;;;;;14.65;9.30;;;5.60;99.90;;;;;;5056753;28;20754;-82
2021/03/25 03:16:26;;;;;;;13.43;8.80;;;5.70;99.90;;;;;;5037443;28;20218;-82
2021/03/25 03:18:57;;;;;;;15.68;9.80;;;5.80;99.90;;;;;;5042808;28;20704;-82
2021/03/25 03:21:31;;;;;;;15.23;8.90;;;5.60;99.90;;;;;;5043778;28;20244;-83
2021/03/25 03:23:58;;;;;;;14.10;9.55;;;5.70;99.90;;;;;;5068961;28;20222;-82
2021/03/25 03:26:30;;;;;;;14.52;9.52;;;5.50;99.90;;;;;;5076003;28;20202;-83
2021/03/25 03:29:04;;;;;;;14.88;9.15;;;5.60;99.90;;;;;;5056740;28;20231;-83
2021/03/25 03:31:38;;;;;;;14.02;8.75;;;5.50;99.90;;;;;;5041131;28;20203;-83
2021/03/25 03:34:08;;;;;;;14.40;8.60;;;5.50;99.90;;;;;;5060163;28;20206;-82
2021/03/25 03:36:36;;;;;;;13.23;8.20;;;5.60;99.90;;;;;;5060161;28;20233;-83
2021/03/25 03:39:07;;;;;;;16.83;10.48;;;5.40;99.90;;;;;;5060045;28;20756;-83
2021/03/25 03:41:39;;;;;;;14.15;9.13;;;5.40;99.90;;;;;;5060349;28;20233;-83
2021/03/25 03:44:08;;;;;;;15.00;9.27;;;5.40;99.90;;;;;;5060284;28;20221;-83
2021/03/25 03:46:37;;;;;;;13.95;8.05;;;5.50;99.90;;;;;;5060334;28;20222;-83
2021/03/25 03:49:10;;;;;;;14.77;8.95;;;5.50;99.90;;;;;;5058387;28;20368;-82
2021/03/25 03:51:42;;;;;;;13.48;7.65;;;5.40;99.90;;;;;;5051867;28;20253;-82
2021/03/25 03:54:09;;;;;;;13.50;8.45;;;5.70;99.90;;;;;;5046522;28;20347;-82
2021/03/25 03:56:43;;;;;;;12.65;8.40;;;5.60;99.90;;;;;;5058945;28;20582;-82
2021/03/25 03:59:15;;;;;;;11.55;8.20;;;5.70;99.90;;;;;;5051404;28;20269;-82
2021/03/25 04:01:48;;;;;;;15.73;8.43;;;5.90;99.90;;;;;;5053854;28;20210;-81
2021/03/25 04:04:22;;;;;;;12.57;7.55;;;5.80;99.90;;;;;;5059150;28;20412;-83
2021/03/25 04:06:55;;;;;;;12.98;7.90;;;5.60;99.90;;;;;;5056446;28;20210;-80
2021/03/25 04:09:25;;;;;;;13.90;9.10;;;5.70;99.90;;;;;;5058371;28;20731;-82
2021/03/25 04:11:56;;;;;;;14.73;9.52;;;5.70;99.90;;;;;;5058834;28;20655;-81
2021/03/25 04:14:25;;;;;;;14.02;9.00;;;5.60;99.90;;;;;;5059327;28;20194;-81
2021/03/25 04:16:55;;;;;;;15.82;9.10;;;5.60;99.90;;;;;;5067461;28;20202;-80
2021/03/25 04:19:28;;;;;;;13.88;8.52;;;5.50;99.90;;;;;;5071987;28;20246;-80
2021/03/25 04:22:00;;;;;;;11.77;8.10;;;5.70;99.90;;;;;;5063402;28;20205;-80
2021/03/25 04:24:29;;;;;;;12.13;7.53;;;5.40;99.90;;;;;;5058672;28;20286;-80
2021/03/25 04:27:05;;;;;;;11.02;8.23;;;5.40;99.90;;;;;;5059198;28;20230;-81
2021/03/25 04:29:37;;;;;;;12.43;7.75;;;5.50;99.90;;;;;;5059578;28;20301;-81
2021/03/25 04:32:05;;;;;;;16.98;8.40;;;5.30;99.90;;;;;;5062617;28;20210;-80
2021/03/25 04:34:32;;;;;;;12.25;7.90;;;5.50;99.90;;;;;;5070452;28;20203;-80
2021/03/25 04:36:59;;;;;;;12.85;8.32;;;5.30;99.90;;;;;;5063278;28;20262;-81
2021/03/25 04:39:26;;;;;;;13.93;8.00;;;5.30;99.90;;;;;;5059867;28;20223;-80
2021/03/25 04:41:55;;;;;;;11.43;7.60;;;5.40;99.90;;;;;;5071255;28;20199;-80
2021/03/25 04:44:32;;;;;;;11.07;7.05;;;5.40;99.90;;;;;;5069943;28;20230;-81
2021/03/25 04:47:05;;;;;;;14.30;7.28;;;5.50;99.90;;;;;;5062994;28;20209;-80
2021/03/25 04:49:36;;;;;;;13.20;8.20;;;5.50;99.90;;;;;;5042624;28;20222;-81
2021/03/25 04:52:08;;;;;;;13.15;8.18;;;5.60;99.90;;;;;;5044399;28;20242;-80
2021/03/25 04:54:37;;;;;;;11.93;7.70;;;5.60;99.90;;;;;;5069860;28;20206;-81
2021/03/25 04:57:12;;;;;;;13.98;8.48;;;5.70;99.90;;;;;;5055136;28;20218;-80
2021/03/25 04:59:39;;;;;;;11.05;7.60;;;5.70;99.90;;;;;;5045551;28;20222;-81
2021/03/25 05:02:07;;;;;;;14.40;8.60;;;5.80;99.90;;;;;;5051269;28;20218;-81
2021/03/25 05:04:42;;;;;;;12.10;8.07;;;6.00;99.90;;;;;;5046066;28;20199;-82
2021/03/25 05:07:13;;;;;;;11.43;7.60;;;5.80;99.90;;;;;;5040340;28;20206;-82
2021/03/25 05:09:39;;;;;;;13.80;7.60;;;5.70;99.90;;;;;;5038393;28;20218;-82
2021/03/25 05:12:07;;;;;;;13.40;7.78;;;6.00;99.90;;;;;;5060798;28;20202;-82
2021/03/25 05:14:34;;;;;;;12.85;7.90;;;5.90;99.90;;;;;;5082262;28;20209;-81
2021/03/25 05:17:14;;;;;;;14.30;8.43;;;5.80;99.90;;;;;;5062888;28;20230;-84
2021/03/25 05:20:06;;;;;;;10.60;7.60;;;5.70;99.90;;;;;;5057108;28;20296;-83
2021/03/25 05:22:40;;;;;;;14.48;8.23;;;5.50;99.90;;;;;;5057913;28;20202;-83
2021/03/25 05:25:12;;;;;;;13.68;7.53;;;5.40;99.90;;;;;;5056593;28;20229;-83
2021/03/25 05:27:44;;;;;;;17.60;8.45;;;5.40;99.90;;;;;;5037631;28;20246;-84
2021/03/25 05:30:15;;;;;;;13.68;8.73;;;5.40;99.90;;;;;;5060989;28;20205;-83
2021/03/25 05:32:46;;;;;;;13.50;7.35;;;5.30;99.90;;;;;;5039546;28;20548;-83
2021/03/25 05:35:18;;;;;;;16.63;8.25;;;5.50;99.90;;;;;;5042471;28;20664;-82
2021/03/25 05:37:45;;;;;;;12.82;8.20;;;5.40;99.90;;;;;;5057873;28;20619;-80
2021/03/25 05:40:19;;;;;;;12.25;7.60;;;5.30;99.90;;;;;;5052589;28;20533;-81
2021/03/25 05:42:53;;;;;;;10.73;7.25;;;5.40;99.90;;;;;;5071482;28;20222;-81
2021/03/25 05:45:29;;;;;;;12.05;7.88;;;5.50;99.90;;;;;;5056314;28;20642;-81
2021/03/25 05:48:22;;;;;;;14.30;8.45;;;5.40;99.90;;;;;;5056981;28;20261;-82
2021/03/25 05:50:57;;;;;;;13.50;8.27;;;5.50;99.90;;;;;;5052468;28;20196;-81
2021/03/25 05:53:41;;;;;;;11.00;6.93;;;5.30;99.90;;;;;;5053581;28;20284;-81
2021/03/25 05:56:19;;;;;;;11.32;7.78;;;5.50;99.90;;;;;;5060117;28;20216;-82
2021/03/25 05:58:49;;;;;;;13.00;7.97;;;5.60;99.90;;;;;;5060401;28;20223;-82
2021/03/25 06:01:38;;;;;;;15.82;7.82;;;5.90;99.90;;;;;;5052346;28;21004;-81
2021/03/25 06:04:12;;;;;;;13.10;7.55;;;5.60;99.90;;;;;;5047367;28;20207;-81
2021/03/25 06:07:02;;;;;;;15.32;8.18;;;5.50;99.90;;;;;;5063102;28;20203;-81
2021/03/25 06:09:42;;;;;;;13.48;8.32;;;5.60;99.90;;;;;;5057296;28;20234;-81
2021/03/25 06:12:16;;;;;;;14.10;8.40;;;5.60;99.90;;;;;;5057882;28;20202;-82
2021/03/25 06:14:53;;;;;;;10.68;7.65;;;5.70;99.90;;;;;;5057247;28;20201;-81
2021/03/25 06:17:44;;;;;;;13.55;8.45;;;5.80;99.90;;;;;;5048048;28;20291;-81
2021/03/25 06:20:23;;;;;;;13.60;7.95;;;5.80;99.90;;;;;;5038614;28;20557;-83
2021/03/25 06:23:04;;;;;;;13.82;8.20;;;5.90;99.90;;;;;;5050267;28;20580;-83
2021/03/25 06:26:00;;;;;;;13.00;7.95;;;6.10;99.90;;;;;;5056155;28;20218;-81
2021/03/25 06:28:36;;;;;;;13.77;8.40;;;6.30;99.90;;;;;;5055933;28;20284;-82
2021/03/25 06:31:30;;;;;;;11.63;7.53;;;6.40;99.90;;;;;;5055572;28;20726;-81
2021/03/25 06:34:02;;;;;;;14.25;7.65;;;6.50;99.90;;;;;;5035284;28;20229;-81
2021/03/25 06:36:41;;;;;;;11.82;7.28;;;6.60;99.90;;;;;;5054355;28;20236;-82
2021/03/25 06:39:21;;;;;;;11.88;7.80;;;6.50;99.90;;;;;;5055003;28;20218;-82
2021/03/25 06:41:56;;;;;;;14.65;7.68;;;6.70;99.90;;;;;;5051374;28;20219;-81
2021/03/25 06:44:28;;;;;;;12.48;8.00;;;7.00;99.90;;;;;;5042589;28;20237;-82
2021/03/25 06:47:05;;;;;;;13.80;8.25;;;7.10;99.90;;;;;;5052466;28;20625;-81
2021/03/25 06:49:38;;;;;;;11.50;7.75;;;7.20;99.90;;;;;;5056383;28;20317;-82
2021/03/25 06:52:20;;;;;;;11.57;7.72;;;7.30;99.90;;;;;;5055745;28;20234;-81
2021/03/25 06:54:47;;;;;;;19.23;8.52;;;7.40;99.90;;;;;;5059002;28;20270;-81
2021/03/25 06:57:19;;;;;;;13.05;8.20;;;7.40;99.90;;;;;;5057061;28;20241;-82
2021/03/25 06:59:47;;;;;;;12.70;8.00;;;7.50;99.90;;;;;;5059657;28;20233;-81
2021/03/25 07:02:19;;;;;;;15.88;8.10;;;7.70;99.90;;;;;;5056897;28;20793;-81
2021/03/25 07:04:50;;;;;;;17.40;8.80;;;7.70;99.90;;;;;;5041014;28;20666;-83
2021/03/25 07:07:20;;;;;;;16.48;8.30;;;7.90;99.90;;;;;;5057010;28;20281;-83
2021/03/25 07:09:48;;;;;;;17.38;7.68;;;8.10;99.90;;;;;;5060877;28;20257;-83
2021/03/25 07:12:19;;;;;;;13.20;8.30;;;8.10;99.90;;;;;;5059869;28;20211;-83
2021/03/25 07:14:48;;;;;;;9.82;7.00;;;8.40;99.90;;;;;;5040920;28;20297;-83
2021/03/25 07:17:16;;;;;;;15.60;8.00;;;8.60;99.90;;;;;;5044375;28;20290;-83
2021/03/25 07:19:47;;;;;;;16.50;7.20;;;8.70;99.90;;;;;;5061444;28;20999;-83
2021/03/25 07:22:21;;;;;;;11.30;7.70;;;8.90;99.90;;;;;;5065874;28;20435;-82
2021/03/25 07:24:49;;;;;;;10.90;6.93;;;8.80;99.90;;;;;;5041857;28;20460;-83
2021/03/25 07:27:18;;;;;;;10.63;7.10;;;9.00;99.90;;;;;;5043327;28;20504;-83
2021/03/25 07:29:46;;;;;;;13.30;7.07;;;9.20;99.90;;;;;;5058022;28;20508;-81
2021/03/25 07:32:34;;;;;;;18.20;10.80;;;9.30;99.90;;;;;;5063013;28;20471;-80
2021/03/25 07:35:12;;;;;;;15.50;8.93;;;9.20;99.90;;;;;;5074121;28;20452;-80
2021/03/25 07:37:41;;;;;;;21.50;10.80;;;8.80;99.90;;;;;;5071061;28;20810;-82
2021/03/25 07:40:24;;;;;;;19.87;12.70;;;9.40;99.90;;;;;;5060806;28;20519;-81
2021/03/25 07:42:50;;;;;;;19.23;10.38;;;9.30;99.90;;;;;;5062837;28;20855;-81
2021/03/25 07:45:21;;;;;;;17.60;11.33;;;9.40;99.90;;;;;;5061548;28;20684;-81
2021/03/25 07:47:48;;;;;;;18.73;11.50;;;9.20;99.90;;;;;;5060070;28;20465;-81
2021/03/25 07:50:30;;;;;;;20.88;10.88;;;9.30;99.90;;;;;;5049374;28;20470;-80
2021/03/25 07:52:57;;;;;;;17.23;9.83;;;9.20;99.90;;;;;;5057957;28;20210;-81
2021/03/25 07:55:28;;;;;;;17.13;11.03;;;9.40;99.90;;;;;;5064198;28;20464;-81
2021/03/25 07:57:57;;;;;;;20.63;10.00;;;9.60;99.90;;;;;;5073768;28;20526;-83
2021/03/25 08:00:31;;;;;;;14.50;10.93;;;9.50;99.90;;;;;;5074408;28;20477;-82
2021/03/25 08:03:16;;;;;;;17.00;11.10;;;9.50;99.90;;;;;;5062918;28;20452;-82
2021/03/25 08:05:44;;;;;;;20.30;10.47;;;9.60;99.90;;;;;;5061194;28;20449;-82
2021/03/25 08:08:23;;;;;;;18.67;10.60;;;9.70;99.90;;;;;;5060237;28;20473;-79
2021/03/25 08:10:52;;;;;;;20.37;10.83;;;9.60;99.90;;;;;;5058457;28;20449;-79
2021/03/25 08:13:22;;;;;;;21.70;11.13;;;9.70;99.90;;;;;;5058535;28;20532;-79
2021/03/25 08:15:50;;;;;;;18.77;10.77;;;9.90;99.90;;;;;;5058006;28;20445;-79
2021/03/25 08:18:40;;;;;;;14.73;9.83;;;9.90;99.90;;;;;;5058538;28;20501;-78
2021/03/25 08:21:38;;;;;;;21.37;12.07;;;10.10;99.90;;;;;;5065122;28;20554;-80
2021/03/25 08:24:25;;;;;;;22.77;11.87;;;10.20;99.90;;;;;;5051686;28;20446;-79
2021/03/25 08:27:06;;;;;;;21.47;10.43;;;10.30;99.90;;;;;;5059900;28;20464;-78
2021/03/25 08:29:40;;;;;;;16.83;9.40;;;10.60;99.90;;;;;;5054436;28;20502;-78
2021/03/25 08:32:29;;;;;;;16.00;10.43;;;10.80;99.90;;;;;;5047982;28;20464;-79
2021/03/25 08:35:18;;;;;;;12.90;10.00;;;10.80;99.90;;;;;;5061983;28;20448;-78
2021/03/25 08:38:06;;;;;;;23.13;10.53;;;10.90;99.90;;;;;;5064135;28;20487;-79
2021/03/25 08:40:40;;;;;;;16.27;10.70;;;11.00;99.90;;;;;;5057111;28;20571;-78
2021/03/25 08:43:18;;;;;;;17.57;11.13;;;11.10;99.90;;;;;;5053648;28;20455;-77
2021/03/25 08:45:50;;;;;;;21.60;11.10;;;11.20;99.70;;;;;;5053464;28;20506;-76
2021/03/25 08:48:21;;;;;;;15.07;9.93;;;11.20;99.60;;;;;;5053546;28;20487;-78
2021/03/25 08:50:51;;;;;;;19.10;11.33;;;11.40;99.30;;;;;;5051345;28;20449;-78
2021/03/25 08:53:28;;;;;;;24.00;11.27;;;11.50;99.10;;;;;;5052834;28;20468;-78
2021/03/25 08:55:58;;;;;;;15.97;11.13;;;11.50;98.80;;;;;;5056217;28;20518;-77
2021/03/25 08:58:31;;;;;;;15.90;10.30;;;11.60;98.90;;;;;;5054946;28;20555;-84
2021/03/25 09:01:03;;;;;;;14.10;9.47;;;11.60;98.50;;;;;;5060766;28;20479;-82
2021/03/25 09:03:34;;;;;;;11.37;8.90;;;11.70;98.40;;;;;;5041755;28;20439;-82
2021/03/25 09:06:05;;;;;;;12.83;9.07;;;11.80;98.10;;;;;;5041617;28;20454;-82
2021/03/25 09:08:34;;;;;;;18.30;9.87;;;11.80;98.00;;;;;;5058345;28;20513;-83
2021/03/25 09:11:03;;;;;;;19.00;10.23;;;11.70;98.00;;;;;;5054263;28;20515;-79
2021/03/25 09:13:41;;;;;;;12.00;8.50;;;11.70;98.20;;;;;;5055443;28;21173;-80
2021/03/25 09:16:12;;;;;;;23.60;9.50;;;11.80;98.00;;;;;;5058623;28;20895;-78
2021/03/25 09:18:43;;;;;;;16.50;9.50;;;11.90;97.80;;;;;;5060927;28;20485;-87
2021/03/25 09:21:14;;;;;;;16.70;9.97;;;12.00;97.80;;;;;;5063359;28;20443;-78
2021/03/25 09:24:02;;;;;;;18.23;9.80;;;12.00;97.60;;;;;;5067582;28;20586;-78
2021/03/25 09:27:00;;;;;;;15.70;9.40;;;12.00;97.80;;;;;;5068689;28;20463;-78
2021/03/25 09:29:32;;;;;;;20.83;10.77;;;12.20;98.20;;;;;;5060548;28;20935;-82
2021/03/25 09:32:37;;;;;;;16.53;9.93;;;12.50;97.70;;;;;;5062279;28;20462;-83
2021/03/25 09:35:36;;;;;;;17.80;9.90;;;12.70;97.00;;;;;;5051849;28;20480;-83
2021/03/25 09:38:03;;;;;;;12.97;8.10;;;12.70;96.70;;;;;;5053690;28;20456;-82
2021/03/25 09:40:46;;;;;;;14.73;8.90;;;12.80;96.60;;;;;;5055170;28;20494;-82
2021/03/25 09:43:37;;;;;;;15.00;10.40;;;12.90;96.50;;;;;;5055251;28;20439;-82
2021/03/25 09:46:26;;;;;;;14.87;9.50;;;13.00;96.40;;;;;;5054846;28;20505;-84
2021/03/25 09:48:55;;;;;;;20.07;10.90;;;12.90;96.30;;;;;;5055737;28;20452;-82
2021/03/25 09:51:25;;;;;;;14.90;9.20;;;13.00;96.40;;;;;;5054878;28;20417;-82
2021/03/25 09:53:54;;;;;;;17.60;9.63;;;13.10;95.90;;;;;;5053280;28;20405;-81
2021/03/25 09:56:33;;;;;;;13.57;8.87;;;13.20;96.00;;;;;;5053151;28;20409;-82
2021/03/25 09:59:04;;;;;;;13.80;9.30;;;13.30;95.80;;;;;;5060004;28;20446;-82
2021/03/25 10:01:53;;;;;;;13.90;8.40;;;13.30;95.50;;;;;;5065930;28;20440;-82
2021/03/25 10:04:34;;;;;;;10.90;7.90;;;13.40;95.60;;;;;;5067338;28;20445;-84
2021/03/25 10:07:18;;;;;;;17.13;9.23;;;13.50;95.40;;;;;;5070554;28;20438;-85
2021/03/25 10:10:10;;;;;;;14.20;8.37;;;13.40;95.70;;;;;;5054437;28;20470;-84
2021/03/25 10:13:23;;;;;;;15.27;9.20;;;13.50;95.60;;;;;;5037976;28;20435;-85
2021/03/25 10:15:56;;;;;;;16.20;8.60;;;13.60;95.40;;;;;;5034015;28;20433;-83
2021/03/25 10:18:59;;;;;;;13.10;8.90;;;13.60;95.10;;;;;;5045063;28;20529;-83
2021/03/25 10:22:04;;;;;;;9.90;7.13;;;13.80;94.70;;;;;;5045182;28;20954;-83
2021/03/25 10:24:43;;;;;;;11.63;8.10;;;13.90;94.40;;;;;;5045571;28;20465;-83
2021/03/25 10:27:26;;;;;;;11.70;6.70;;;14.00;93.40;;;;;;5063314;28;20455;-83
2021/03/25 10:29:53;;;;;;;33.83;8.70;;;14.20;92.10;;;;;;5058733;28;20559;-84
2021/03/25 10:32:26;;;;;;;11.73;7.50;;;14.20;92.30;;;;;;5059135;28;20494;-83
2021/03/25 10:34:59;;;;;;;14.87;8.60;;;14.30;92.00;;;;;;5058374;28;20466;-82
2021/03/25 10:37:34;;;;;;;13.60;7.83;;;14.40;91.50;;;;;;5057550;28;20549;-80
2021/03/25 10:40:19;;;;;;;10.37;7.50;;;14.60;91.30;;;;;;5057007;28;20497;-80
2021/03/25 10:42:55;;;;;;;13.30;8.17;;;14.60;91.30;;;;;;5052729;28;20548;-79
2021/03/25 10:45:29;;;;;;;12.80;7.93;;;14.60;91.10;;;;;;5057189;28;20453;-80
2021/03/25 10:47:59;;;;;;;16.90;8.73;;;14.70;91.20;;;;;;5056039;28;20538;-81
2021/03/25 10:50:38;;;;;;;13.73;7.70;;;14.70;90.80;;;;;;5057646;28;20451;-79
2021/03/25 10:53:10;;;;;;;14.77;7.70;;;14.70;90.50;;;;;;5067856;28;20415;-79
2021/03/25 10:55:40;;;;;;;17.23;8.47;;;14.90;90.40;;;;;;5065993;28;20431;-81
2021/03/25 10:58:14;;;;;;;17.00;9.37;;;15.00;89.90;;;;;;5054822;28;20451;-79
2021/03/25 11:00:40;;;;;;;16.23;7.63;;;15.00;89.30;;;;;;5058808;28;20540;-80
2021/03/25 11:03:33;;;;;;;10.00;7.30;;;15.20;88.90;;;;;;5059425;28;20459;-79
2021/03/25 11:06:02;;;;;;;12.90;7.37;;;15.20;87.60;;;;;;5047405;28;20457;-79
2021/03/25 11:08:35;;;;;;;11.60;6.50;;;15.20;86.80;;;;;;5062860;28;20439;-79
2021/03/25 11:11:12;;;;;;;10.77;7.00;;;15.30;85.40;;;;;;5066947;28;20444;-83
2021/03/25 11:13:40;;;;;;;10.87;6.50;;;15.40;84.40;;;;;;5059797;28;20468;-78
2021/03/25 11:16:17;;;;;;;17.23;6.70;;;15.40;83.80;;;;;;5058840;28;20467;-78
2021/03/25 11:18:46;;;;;;;13.37;6.87;;;15.40;82.80;;;;;;5059734;28;20588;-78
2021/03/25 11:21:20;;;;;;;12.33;7.00;;;15.40;81.40;;;;;;5055439;28;20487;-78
2021/03/25 11:23:47;;;;;;;13.93;5.73;;;15.50;81.30;;;;;;5054433;28;20478;-77
2021/03/25 11:26:22;;;;;;;9.00;6.20;;;15.60;80.00;;;;;;5043623;28;20425;-78
2021/03/25 11:28:49;;;;;;;9.57;4.97;;;15.70;78.10;;;;;;5038980;28;20480;-78
2021/03/25 11:31:26;;;;;;;8.93;5.63;;;15.70;75.60;;;;;;5051977;28;20424;-78
2021/03/25 11:33:54;;;;;;;11.77;6.50;;;15.80;77.00;;;;;;5052521;28;20438;-77
2021/03/25 11:36:37;;;;;;;9.97;6.80;;;15.80;78.70;;;;;;5052748;28;20449;-78
2021/03/25 11:39:21;;;;;;;13.33;6.57;;;16.00;79.60;;;;;;5051891;28;20447;-78
2021/03/25 11:41:48;;;;;;;10.17;5.67;;;16.20;78.40;;;;;;5054507;28;20488;-78
2021/03/25 11:44:44;;;;;;;12.70;7.23;;;16.30;77.50;;;;;;5053708;28;20910;-76
2021/03/25 11:47:36;;;;;;;9.33;5.93;;;16.50;76.80;;;;;;5053524;28;20445;-78
2021/03/25 11:50:07;;;;;;;15.40;8.87;;;16.60;75.50;;;;;;5035253;28;20456;-83
2021/03/25 11:52:43;;;;;;;13.13;6.27;;;16.60;74.60;;;;;;5039576;28;20445;-83
2021/03/25 11:55:21;;;;;;;8.53;5.50;;;16.60;74.20;;;;;;5040543;28;20445;-83
2021/03/25 11:57:47;;;;;;;10.57;5.60;;;16.60;74.80;;;;;;5045418;28;20420;-84
2021/03/25 12:00:16;;;;;;;11.37;6.67;;;16.50;74.70;;;;;;5050447;28;20483;-85
2021/03/25 12:02:44;;;;;;;10.53;6.60;;;16.40;75.70;;;;;;5068576;28;20721;-84
2021/03/25 12:05:42;;;;;;;11.97;6.80;;;16.30;75.80;;;;;;5071808;28;20453;-84
2021/03/25 12:08:25;;;;;;;14.33;7.93;;;16.50;76.10;;;;;;5058507;28;20552;-84
2021/03/25 12:11:00;;;;;;;13.53;7.20;;;16.60;76.30;;;;;;5061737;28;20503;-83
2021/03/25 12:13:28;;;;;;;11.50;7.30;;;16.70;75.40;;;;;;5067001;28;20445;-84
2021/03/25 12:15:54;;;;;;;13.37;6.87;;;16.90;75.20;;;;;;5070679;28;20415;-82
2021/03/25 12:18:24;;;;;;;12.13;6.93;;;16.90;75.10;;;;;;5069839;28;20501;-81
2021/03/25 12:20:51;;;;;;;13.00;7.10;;;16.70;74.90;;;;;;5048444;28;20464;-82
2021/03/25 12:23:19;;;;;;;14.40;6.40;;;16.70;75.50;;;;;;5037920;28;20463;-81
2021/03/25 12:25:55;;;;;;;12.97;7.20;;;16.70;76.00;;;;;;5045512;28;20434;-84
2021/03/25 12:28:22;;;;;;;12.03;7.60;;;16.70;77.10;;;;;;5059578;28;20515;-83
2021/03/25 12:30:49;;;;;;;11.80;7.27;;;16.70;77.20;;;;;;5060887;28;20428;-83
2021/03/25 12:33:21;;;;;;;14.87;7.53;;;16.80;77.60;;;;;;5059784;28;20469;-83
2021/03/25 12:35:48;;;;;;;15.90;9.10;;;16.80;77.40;;;;;;5059477;28;20564;-82
2021/03/25 12:38:15;;;;;;;11.23;7.93;;;16.90;76.80;;;;;;5040083;28;20536;-82
2021/03/25 12:40:41;;;;;;;13.23;7.80;;;17.00;76.90;;;;;;5039217;28;20460;-81
2021/03/25 12:43:10;;;;;;;15.10;8.27;;;17.10;76.60;;;;;;5037319;28;20490;-83
2021/03/25 12:45:39;;;;;;;14.13;8.97;;;17.10;77.80;;;;;;5038032;28;20465;-82
2021/03/25 12:48:07;;;;;;;19.00;9.10;;;17.10;78.30;;;;;;5039370;28;20460;-81
2021/03/25 12:50:33;;;;;;;13.20;7.90;;;17.20;78.20;;;;;;5040439;28;20831;-81
2021/03/25 12:53:00;;;;;;;14.20;8.13;;;17.20;78.70;;;;;;5038023;28;20485;-81
2021/03/25 12:55:27;;;;;;;13.93;8.67;;;17.00;78.60;;;;;;5046698;28;20485;-83
2021/03/25 12:57:57;;;;;;;15.30;8.53;;;17.00;79.30;;;;;;5058491;28;20559;-83
2021/03/25 13:00:29;;;;;;;15.60;9.30;;;17.00;79.20;;;;;;5058490;28;20536;-83
2021/03/25 13:02:55;;;;;;;15.60;9.43;;;17.10;78.80;;;;;;5046146;28;20492;-83
2021/03/25 13:05:24;;;;;;;13.00;8.27;;;17.00;78.60;;;;;;5060303;28;20540;-83
2021/03/25 13:07:51;;;;;;;13.70;9.07;;;17.00;79.00;;;;;;5058326;28;20458;-83
2021/03/25 13:10:19;;;;;;;12.50;8.10;;;17.10;78.90;;;;;;5057585;28;20432;-82
2021/03/25 13:12:46;;;;;;;17.00;8.57;;;17.10;79.10;;;;;;5058789;28;20453;-83
2021/03/25 13:15:13;;;;;;;14.90;8.13;;;17.30;78.70;;;;;;5058138;28;20480;-82